Time,TemperatureF,DewpointF,PressureIn,WindDirection,WindDirectionDegrees,WindSpeedMPH,WindSpeedGustMPH,Humidity,HourlyPrecipIn,Conditions,Clouds,dailyrainin,SoftwareType,DateUTC
2013-03-06 00:01:00,51.1,48.5,29.65,SSW,202,1.1,1.1,91,0.00,,OVC037,0.00,VWS V14.01,2013-03-06 08:01:00,
2013-03-06 00:06:00,51.1,48.5,29.65,SSW,202,1.1,1.1,91,0.00,,OVC037,0.00,VWS V14.01,2013-03-06 08:06:00,
2013-03-06 00:11:00,51.1,48.5,29.65,SSW,202,1.1,1.1,91,0.00,,OVC037,0.00,VWS V14.01,2013-03-06 08:11:00,
2013-03-06 00:16:00,50.9,48.4,29.62,SSW,202,1.1,1.1,91,0.00,,OVC037,0.00,VWS V14.01,2013-03-06 08:16:00,
2013-03-06 00:21:00,50.9,48.4,29.62,SSW,202,1.1,1.1,91,0.00,,OVC037,0.00,VWS V14.01,2013-03-06 08:21:00,
2013-03-06 00:26:00,50.9,48.4,29.62,SSW,202,1.1,1.1,91,0.00,,OVC037,0.00,VWS V14.01,2013-03-06 08:26:00,
2013-03-06 00:31:00,50.9,48.4,29.62,SSW,202,1.1,1.1,91,0.00,,OVC037,0.00,VWS V14.01,2013-03-06 08:31:00,
2013-03-06 00:36:00,50.9,48.1,29.62,SSW,202,1.1,1.1,90,0.00,,OVC037,0.00,VWS V14.01,2013-03-06 08:36:00,
2013-03-06 00:41:00,50.9,48.1,29.62,SSW,202,1.1,1.1,90,0.00,,OVC037,0.00,VWS V14.01,2013-03-06 08:41:00,
2013-03-06 00:46:00,50.9,48.1,29.62,SSW,202,1.1,1.1,90,0.00,,OVC037,0.00,VWS V14.01,2013-03-06 08:46:00,
2013-03-06 00:51:00,50.9,48.1,29.62,SSW,202,1.1,1.1,90,0.00,,OVC037,0.00,VWS V14.01,2013-03-06 08:51:00,
2013-03-06 00:56:00,50.9,47.8,29.62,SSW,202,1.1,1.1,89,0.00,,OVC037,0.00,VWS V14.01,2013-03-06 08:56:00,
2013-03-06 01:01:00,50.9,47.8,29.62,SSW,202,1.1,1.1,89,0.00,,OVC023,0.00,VWS V14.01,2013-03-06 09:01:00,
2013-03-06 01:06:00,51.1,47.7,29.62,SSW,202,1.1,1.1,88,0.00,,OVC023,0.00,VWS V14.01,2013-03-06 09:06:00,
2013-03-06 01:11:00,50.9,47.5,29.62,SSW,202,1.1,1.1,88,0.00,,OVC023,0.00,VWS V14.01,2013-03-06 09:11:00,
2013-03-06 01:16:00,50.9,47.5,29.62,SSW,202,1.1,1.1,88,0.00,,OVC023,0.00,VWS V14.01,2013-03-06 09:16:00,
2013-03-06 01:21:00,50.9,46.9,29.62,SSW,202,1.1,1.1,86,0.00,,OVC023,0.00,VWS V14.01,2013-03-06 09:21:00,
2013-03-06 01:26:00,50.9,46.9,29.62,SSW,202,1.1,1.1,86,0.00,,OVC023,0.00,VWS V14.01,2013-03-06 09:26:00,
2013-03-06 01:31:00,50.9,46.9,29.62,SSW,202,1.1,1.1,86,0.00,,OVC023,0.00,VWS V14.01,2013-03-06 09:31:00,
2013-03-06 01:36:00,50.9,46.6,29.62,SSW,202,1.1,1.1,85,0.00,,OVC023,0.00,VWS V14.01,2013-03-06 09:36:00,
2013-03-06 01:41:00,50.9,46.6,29.62,SSW,202,1.1,1.1,85,0.00,,OVC023,0.00,VWS V14.01,2013-03-06 09:41:00,
2013-03-06 01:46:00,50.9,46.6,29.62,SSW,202,1.1,1.1,85,0.00,,OVC023,0.00,VWS V14.01,2013-03-06 09:46:00,
2013-03-06 01:51:00,50.9,46.6,29.62,SSW,202,1.1,1.1,85,0.00,,OVC023,0.00,VWS V14.01,2013-03-06 09:51:00,
2013-03-06 01:56:00,50.9,46.2,29.62,SSW,202,1.1,1.1,84,0.00,,OVC023,0.00,VWS V14.01,2013-03-06 09:56:00,
2013-03-06 02:01:00,50.9,46.2,29.65,SSW,202,1.1,1.1,84,0.00,,OVC023,0.00,VWS V14.01,2013-03-06 10:01:00,
2013-03-06 02:06:00,50.9,46.2,29.65,SSW,202,1.1,1.1,84,0.00,,OVC023,0.00,VWS V14.01,2013-03-06 10:06:00,
2013-03-06 02:11:00,50.9,46.2,29.65,SSW,202,1.1,1.1,84,0.00,,OVC023,0.00,VWS V14.01,2013-03-06 10:11:00,
2013-03-06 02:16:00,50.9,46.2,29.62,SSW,202,1.1,1.1,84,0.00,,OVC038,0.00,VWS V14.01,2013-03-06 10:16:00,
2013-03-06 02:21:00,50.9,45.9,29.62,SSW,202,1.1,1.1,83,0.00,,OVC038,0.00,VWS V14.01,2013-03-06 10:21:00,
2013-03-06 02:26:00,50.9,45.9,29.62,SSW,202,1.1,1.1,83,0.00,,OVC038,0.00,VWS V14.01,2013-03-06 10:26:00,
2013-03-06 02:31:00,50.9,45.9,29.62,SSW,202,1.1,1.1,83,0.00,,OVC040,0.00,VWS V14.01,2013-03-06 10:31:00,
2013-03-06 02:36:00,50.9,45.6,29.62,SSW,202,1.1,1.1,82,0.00,,OVC040,0.00,VWS V14.01,2013-03-06 10:36:00,
2013-03-06 02:42:00,50.9,45.6,29.62,SSW,202,1.1,1.1,82,0.00,,OVC040,0.00,VWS V14.01,2013-03-06 10:42:00,
2013-03-06 02:47:00,50.9,45.6,29.62,SSW,202,1.1,1.1,82,0.00,,OVC048,0.00,VWS V14.01,2013-03-06 10:47:00,
2013-03-06 02:52:00,50.7,45.1,29.62,SSW,202,1.1,1.1,81,0.00,,OVC048,0.00,VWS V14.01,2013-03-06 10:52:00,
2013-03-06 02:57:00,50.7,45.1,29.62,SSW,202,1.1,1.1,81,0.00,,OVC048,0.00,VWS V14.01,2013-03-06 10:57:00,
2013-03-06 03:02:00,50.9,45.3,29.62,SSW,202,1.1,1.1,81,0.00,,OVC028,0.00,VWS V14.01,2013-03-06 11:02:00,
2013-03-06 03:07:00,50.7,44.8,29.62,SSW,202,1.1,1.1,80,0.00,,OVC028,0.00,VWS V14.01,2013-03-06 11:07:00,
2013-03-06 03:12:00,50.7,44.8,29.62,SSW,202,1.1,1.1,80,0.00,,OVC028,0.00,VWS V14.01,2013-03-06 11:12:00,
2013-03-06 03:17:00,50.7,44.8,29.59,SSW,202,1.1,1.1,80,0.00,,OVC030,0.00,VWS V14.01,2013-03-06 11:17:00,
2013-03-06 03:22:00,50.7,44.5,29.59,SSW,202,1.1,1.1,79,0.00,,OVC030,0.00,VWS V14.01,2013-03-06 11:22:00,
2013-03-06 03:27:00,50.7,44.8,29.59,SSW,202,1.1,1.1,80,0.00,,OVC030,0.00,VWS V14.01,2013-03-06 11:27:00,
2013-03-06 03:32:00,50.7,44.8,29.62,SSW,202,1.1,1.1,80,0.00,,OVC030,0.00,VWS V14.01,2013-03-06 11:32:00,
2013-03-06 03:37:00,50.7,44.8,29.62,SSW,202,1.1,1.1,80,0.00,,OVC030,0.00,VWS V14.01,2013-03-06 11:37:00,
2013-03-06 03:42:00,50.7,44.8,29.62,SSW,202,1.1,1.1,80,0.00,,OVC030,0.00,VWS V14.01,2013-03-06 11:42:00,
2013-03-06 03:47:00,50.7,44.8,29.62,SSW,202,1.1,1.1,80,0.00,,OVC030,0.00,VWS V14.01,2013-03-06 11:47:00,
2013-03-06 03:52:00,50.7,44.8,29.62,SSW,202,1.1,1.1,80,0.00,,OVC030,0.00,VWS V14.01,2013-03-06 11:52:00,
2013-03-06 03:57:00,50.7,44.5,29.62,SSW,202,1.1,1.1,79,0.00,,OVC030,0.00,VWS V14.01,2013-03-06 11:57:00,
2013-03-06 04:02:00,50.7,44.5,29.62,SSW,202,1.1,1.1,79,0.00,,OVC030,0.00,VWS V14.01,2013-03-06 12:02:00,
2013-03-06 04:07:00,50.7,44.1,29.62,SSW,202,1.1,1.1,78,0.00,,OVC030,0.00,VWS V14.01,2013-03-06 12:07:00,
2013-03-06 04:12:00,50.7,44.1,29.62,SSW,202,1.1,1.1,78,0.00,,OVC030,0.00,VWS V14.01,2013-03-06 12:12:00,
2013-03-06 04:17:00,50.5,44.0,29.62,SSW,202,1.1,1.1,78,0.00,,OVC030,0.00,VWS V14.01,2013-03-06 12:17:00,
2013-03-06 04:22:00,50.5,43.6,29.62,SSW,202,1.1,1.1,77,0.00,,OVC030,0.00,VWS V14.01,2013-03-06 12:22:00,
2013-03-06 04:27:00,50.5,43.6,29.62,SSW,202,1.1,1.1,77,0.00,,OVC030,0.00,VWS V14.01,2013-03-06 12:27:00,
2013-03-06 04:32:00,50.5,43.6,29.62,SSW,202,1.1,1.1,77,0.00,,OVC030,0.00,VWS V14.01,2013-03-06 12:32:00,
2013-03-06 04:37:00,50.4,43.1,29.62,SSW,202,1.1,1.1,76,0.00,,OVC030,0.00,VWS V14.01,2013-03-06 12:37:00,
2013-03-06 04:42:00,50.5,43.3,29.62,SSW,202,1.1,1.1,76,0.00,,OVC030,0.00,VWS V14.01,2013-03-06 12:42:00,
2013-03-06 04:47:00,50.4,43.1,29.62,SSW,202,1.1,1.1,76,0.00,,OVC030,0.00,VWS V14.01,2013-03-06 12:47:00,
2013-03-06 04:52:00,50.4,43.1,29.62,SSW,202,1.1,1.1,76,0.00,,OVC030,0.00,VWS V14.01,2013-03-06 12:52:00,
2013-03-06 04:57:00,50.4,43.1,29.62,SSW,202,1.1,1.1,76,0.00,,OVC030,0.00,VWS V14.01,2013-03-06 12:57:00,
2013-03-06 05:02:00,50.4,43.1,29.62,SSW,202,1.1,1.1,76,0.00,,OVC047,0.00,VWS V14.01,2013-03-06 13:02:00,
2013-03-06 05:07:00,50.4,43.1,29.62,SSW,202,1.1,1.1,76,0.00,,OVC047,0.00,VWS V14.01,2013-03-06 13:07:00,
2013-03-06 05:12:00,50.4,43.1,29.62,SSW,202,1.1,1.1,76,0.00,,OVC047,0.00,VWS V14.01,2013-03-06 13:12:00,
2013-03-06 05:17:00,50.4,42.8,29.62,SSW,202,1.1,1.1,75,0.00,,OVC047,0.00,VWS V14.01,2013-03-06 13:17:00,
2013-03-06 05:22:00,50.4,42.8,29.62,SSW,202,1.1,1.1,75,0.00,,OVC047,0.00,VWS V14.01,2013-03-06 13:22:00,
2013-03-06 05:27:00,50.2,42.6,29.62,SSW,202,1.1,1.1,75,0.00,,OVC047,0.00,VWS V14.01,2013-03-06 13:27:00,
2013-03-06 05:32:00,50.2,42.6,29.62,SSW,202,1.1,1.1,75,0.00,,OVC047,0.00,VWS V14.01,2013-03-06 13:32:00,
2013-03-06 05:37:00,49.8,42.2,29.62,SSW,202,1.1,1.1,75,0.00,,OVC047,0.00,VWS V14.01,2013-03-06 13:37:00,
2013-03-06 05:42:00,49.8,42.2,29.62,SSW,202,1.1,1.1,75,0.00,,OVC047,0.00,VWS V14.01,2013-03-06 13:42:00,
2013-03-06 05:47:00,49.3,41.7,29.62,SSW,202,1.1,1.1,75,0.00,,OVC047,0.00,VWS V14.01,2013-03-06 13:47:00,
2013-03-06 05:52:00,49.3,42.0,29.62,SSW,202,1.1,1.1,76,0.00,,OVC047,0.00,VWS V14.01,2013-03-06 13:52:00,
2013-03-06 05:57:00,48.9,41.7,29.62,SSW,202,1.1,1.1,76,0.00,,OVC047,0.00,VWS V14.01,2013-03-06 13:57:00,
2013-03-06 06:02:00,48.7,41.5,29.62,SSW,202,1.1,1.1,76,0.00,,SCT250,0.00,VWS V14.01,2013-03-06 14:02:00,
2013-03-06 06:07:00,48.7,41.9,29.62,SSW,202,1.1,1.1,77,0.00,,SCT250,0.00,VWS V14.01,2013-03-06 14:07:00,
2013-03-06 06:12:00,48.4,41.5,29.62,SSW,202,1.1,1.1,77,0.00,,SCT250,0.00,VWS V14.01,2013-03-06 14:12:00,
2013-03-06 06:17:00,48.0,41.5,29.62,SSW,202,1.1,1.1,78,0.00,,SCT250,0.00,VWS V14.01,2013-03-06 14:17:00,
2013-03-06 06:22:00,47.7,41.2,29.62,SSW,202,1.1,1.1,78,0.00,,SCT250,0.00,VWS V14.01,2013-03-06 14:22:00,
2013-03-06 06:27:00,47.5,41.3,29.62,SSW,202,1.1,1.1,79,0.00,,SCT250,0.00,VWS V14.01,2013-03-06 14:27:00,
2013-03-06 06:32:00,47.3,41.5,29.62,SSW,202,1.1,1.1,80,0.00,,SCT250,0.00,VWS V14.01,2013-03-06 14:32:00,
2013-03-06 06:37:00,47.3,41.5,29.62,SSW,202,1.1,1.1,80,0.00,,SCT250,0.00,VWS V14.01,2013-03-06 14:37:00,
2013-03-06 06:42:00,47.3,41.8,29.62,SSW,202,1.1,1.1,81,0.00,,SCT250,0.00,VWS V14.01,2013-03-06 14:42:00,
2013-03-06 06:47:00,47.3,42.1,29.62,SSW,202,1.1,1.1,82,0.00,,SCT250,0.00,VWS V14.01,2013-03-06 14:47:00,
2013-03-06 06:52:00,47.5,42.3,29.62,SSW,202,1.1,1.1,82,0.00,,SCT250,0.00,VWS V14.01,2013-03-06 14:52:00,
2013-03-06 06:57:00,47.8,42.9,29.62,SSW,202,1.1,1.1,83,0.00,,SCT250,0.00,VWS V14.01,2013-03-06 14:57:00,
2013-03-06 07:02:00,48.0,43.1,29.62,SSW,202,1.1,1.1,83,0.00,,SCT120,0.00,VWS V14.01,2013-03-06 15:02:00,
2013-03-06 07:07:00,48.0,43.1,29.62,SSW,202,1.1,1.1,83,0.00,,SCT120,0.00,VWS V14.01,2013-03-06 15:07:00,
2013-03-06 07:12:00,48.4,43.5,29.62,SSW,202,1.1,1.1,83,0.00,,SCT120,0.00,VWS V14.01,2013-03-06 15:12:00,
2013-03-06 07:17:00,50.2,45.2,29.62,SSW,202,1.1,1.1,83,0.00,,SCT120,0.00,VWS V14.01,2013-03-06 15:17:00,
2013-03-06 07:23:00,51.3,46.6,29.62,SSW,202,1.1,1.1,84,0.00,,SCT120,0.00,VWS V14.01,2013-03-06 15:23:00,
2013-03-06 07:28:00,52.5,47.5,29.62,SSW,202,1.1,1.1,83,0.00,,SCT120,0.00,VWS V14.01,2013-03-06 15:28:00,
2013-03-06 07:33:00,53.4,48.1,29.62,SSW,202,1.1,1.1,82,0.00,,SCT120,0.00,VWS V14.01,2013-03-06 15:33:00,
2013-03-06 07:38:00,54.3,48.3,29.62,SSW,202,1.1,1.1,80,0.00,,SCT120,0.00,VWS V14.01,2013-03-06 15:38:00,
2013-03-06 07:43:00,55.0,48.3,29.62,SSW,202,1.1,1.1,78,0.00,,SCT120,0.00,VWS V14.01,2013-03-06 15:43:00,
2013-03-06 07:48:00,55.6,47.1,29.62,SSW,202,1.1,1.1,73,0.00,,SCT120,0.00,VWS V14.01,2013-03-06 15:48:00,
2013-03-06 07:53:00,55.8,46.9,29.62,SSW,202,1.1,1.1,72,0.00,,SCT120,0.00,VWS V14.01,2013-03-06 15:53:00,
2013-03-06 07:58:00,56.1,46.5,29.62,SSW,202,1.1,1.1,70,0.00,,SCT120,0.00,VWS V14.01,2013-03-06 15:58:00,
2013-03-06 08:03:00,56.5,45.3,29.62,SSW,202,1.1,1.1,66,0.00,,SCT250,0.00,VWS V14.01,2013-03-06 16:03:00,
2013-03-06 08:08:00,57.0,45.4,29.62,SSW,202,1.1,1.1,65,0.00,,SCT250,0.00,VWS V14.01,2013-03-06 16:08:00,
2013-03-06 08:13:00,57.6,45.5,29.62,SSW,202,1.1,1.1,64,0.00,,SCT250,0.00,VWS V14.01,2013-03-06 16:13:00,
2013-03-06 08:18:00,58.6,44.4,29.62,SSW,202,1.1,1.1,59,0.00,,SCT250,0.00,VWS V14.01,2013-03-06 16:18:00,
2013-03-06 08:23:00,59.4,45.0,29.62,SSW,202,1.1,1.1,59,0.00,,SCT250,0.00,VWS V14.01,2013-03-06 16:23:00,
2013-03-06 08:28:00,60.1,46.2,29.62,SSW,202,1.1,1.1,60,0.00,,SCT250,0.00,VWS V14.01,2013-03-06 16:28:00,
2013-03-06 08:33:00,60.1,44.3,29.62,SSW,202,1.1,1.1,56,0.00,,SCT250,0.00,VWS V14.01,2013-03-06 16:33:00,
2013-03-06 08:38:00,59.0,43.3,29.62,SSW,202,1.1,1.1,56,0.00,,SCT250,0.00,VWS V14.01,2013-03-06 16:38:00,
2013-03-06 08:43:00,59.2,44.0,29.62,SSW,202,1.1,1.1,57,0.00,,SCT250,0.00,VWS V14.01,2013-03-06 16:43:00,
2013-03-06 08:48:00,60.4,44.7,29.62,SSW,202,1.1,1.1,56,0.00,,SCT250,0.00,VWS V14.01,2013-03-06 16:48:00,
2013-03-06 08:53:00,60.8,44.1,29.62,SSW,202,1.1,1.1,54,0.00,,SCT250,0.00,VWS V14.01,2013-03-06 16:53:00,
2013-03-06 08:58:00,62.2,45.4,29.62,SSW,202,1.1,1.1,54,0.00,,SCT250,0.00,VWS V14.01,2013-03-06 16:58:00,
2013-03-06 09:03:00,63.3,45.4,29.62,SSW,202,1.1,1.1,52,0.00,,FEW030,0.00,VWS V14.01,2013-03-06 17:03:00,
2013-03-06 09:08:00,64.0,45.6,29.62,SSW,202,1.1,1.1,51,0.00,,FEW030,0.00,VWS V14.01,2013-03-06 17:08:00,
2013-03-06 09:13:00,63.1,43.7,29.62,SSW,202,1.1,1.1,49,0.00,,FEW030,0.00,VWS V14.01,2013-03-06 17:13:00,
2013-03-06 09:18:00,64.8,44.6,29.62,SSW,202,1.1,1.1,48,0.00,,FEW030,0.00,VWS V14.01,2013-03-06 17:18:00,
2013-03-06 09:23:00,64.9,43.1,29.62,SSW,202,1.1,1.1,45,0.00,,FEW030,0.00,VWS V14.01,2013-03-06 17:23:00,
2013-03-06 09:28:00,65.5,43.6,29.62,SSW,202,1.1,1.1,45,0.00,,FEW030,0.00,VWS V14.01,2013-03-06 17:28:00,
2013-03-06 09:33:00,65.3,43.4,29.62,SSW,202,1.1,1.1,45,0.00,,FEW030,0.00,VWS V14.01,2013-03-06 17:33:00,
2013-03-06 09:38:00,63.5,41.8,29.62,SSW,202,1.1,1.1,45,0.00,,FEW030,0.00,VWS V14.01,2013-03-06 17:38:00,
2013-03-06 09:43:00,61.2,40.2,29.62,SSW,202,1.1,1.1,46,0.00,,FEW030,0.00,VWS V14.01,2013-03-06 17:43:00,
2013-03-06 09:48:00,59.9,39.6,29.65,SSW,202,1.1,1.1,47,0.00,,FEW030,0.00,VWS V14.01,2013-03-06 17:48:00,
2013-03-06 09:53:00,60.1,40.3,29.65,SSW,202,1.1,1.1,48,0.00,,FEW030,0.00,VWS V14.01,2013-03-06 17:53:00,
2013-03-06 09:58:00,59.5,39.8,29.65,SSW,202,1.1,1.1,48,0.00,,FEW030,0.00,VWS V14.01,2013-03-06 17:58:00,
2013-03-06 10:03:00,58.8,39.7,29.65,SSW,202,1.1,1.1,49,0.00,,FEW030,0.00,VWS V14.01,2013-03-06 18:03:00,
2013-03-06 10:08:00,58.8,40.8,29.65,SSW,202,1.1,1.1,51,0.00,,FEW030,0.00,VWS V14.01,2013-03-06 18:08:00,
2013-03-06 10:13:00,59.9,41.2,29.65,SSW,202,1.1,1.1,50,0.00,,FEW030,0.00,VWS V14.01,2013-03-06 18:13:00,
2013-03-06 10:18:00,61.0,42.2,29.62,SSW,202,1.1,1.1,50,0.00,,FEW030,0.00,VWS V14.01,2013-03-06 18:18:00,
2013-03-06 10:23:00,60.6,41.4,29.62,SSW,202,1.1,1.1,49,0.00,,FEW030,0.00,VWS V14.01,2013-03-06 18:23:00,
2013-03-06 10:28:00,63.1,43.7,29.62,SSW,202,1.1,1.1,49,0.00,,FEW030,0.00,VWS V14.01,2013-03-06 18:28:00,
2013-03-06 10:33:00,65.3,44.0,29.62,SSW,202,1.1,1.1,46,0.00,,FEW030,0.00,VWS V14.01,2013-03-06 18:33:00,
2013-03-06 10:38:00,66.7,44.8,29.62,SSW,202,1.1,1.1,45,0.00,,FEW030,0.00,VWS V14.01,2013-03-06 18:38:00,
2013-03-06 10:44:00,67.1,42.6,29.62,SSW,202,1.1,1.1,41,0.00,,FEW030,0.00,VWS V14.01,2013-03-06 18:44:00,
2013-03-06 10:49:00,67.6,43.1,29.59,SSW,202,1.1,1.1,41,0.00,,FEW030,0.00,VWS V14.01,2013-03-06 18:49:00,
2013-03-06 10:54:00,68.5,43.3,29.59,SSW,202,1.1,1.1,40,0.00,,FEW030,0.00,VWS V14.01,2013-03-06 18:54:00,
2013-03-06 10:59:00,68.4,41.8,29.59,SSW,202,1.1,1.1,38,0.00,,FEW030,0.00,VWS V14.01,2013-03-06 18:59:00,
2013-03-06 11:04:00,68.4,41.8,29.62,SSW,202,1.1,1.1,38,0.00,,FEW035,0.00,VWS V14.01,2013-03-06 19:04:00,
2013-03-06 11:09:00,68.2,40.9,29.62,SSW,202,1.1,1.1,37,0.00,,FEW035,0.00,VWS V14.01,2013-03-06 19:09:00,
2013-03-06 11:14:00,66.4,40.0,29.62,SSW,202,1.1,1.1,38,0.00,,FEW035,0.00,VWS V14.01,2013-03-06 19:14:00,
2013-03-06 11:19:00,66.0,40.4,29.62,SSW,202,1.1,1.1,39,0.00,,FEW035,0.00,VWS V14.01,2013-03-06 19:19:00,
2013-03-06 11:24:00,66.2,39.9,29.62,SSW,202,1.1,1.1,38,0.00,,FEW035,0.00,VWS V14.01,2013-03-06 19:24:00,
2013-03-06 11:29:00,67.3,41.5,29.62,SSW,202,1.1,1.1,39,0.00,,FEW035,0.00,VWS V14.01,2013-03-06 19:29:00,
2013-03-06 11:34:00,67.3,41.5,29.62,SSW,202,1.1,1.1,39,0.00,,FEW035,0.00,VWS V14.01,2013-03-06 19:34:00,
2013-03-06 11:39:00,68.9,43.0,29.62,SSW,202,1.1,1.1,39,0.00,,FEW035,0.00,VWS V14.01,2013-03-06 19:39:00,
2013-03-06 11:44:00,67.6,40.5,29.62,SSW,202,1.1,1.1,37,0.00,,FEW035,0.00,VWS V14.01,2013-03-06 19:44:00,
2013-03-06 11:49:00,67.8,40.6,29.62,SSW,202,1.1,1.1,37,0.00,,FEW035,0.00,VWS V14.01,2013-03-06 19:49:00,
2013-03-06 11:54:00,67.3,39.4,29.62,SSW,202,1.1,1.1,36,0.00,,FEW035,0.00,VWS V14.01,2013-03-06 19:54:00,
2013-03-06 11:59:00,66.7,39.7,29.62,SSW,202,1.1,1.1,37,0.00,,FEW035,0.00,VWS V14.01,2013-03-06 19:59:00,
2013-03-06 12:04:00,66.9,39.8,29.59,SSW,202,1.1,1.1,37,0.00,,FEW035,0.00,VWS V14.01,2013-03-06 20:04:00,
2013-03-06 12:09:00,67.3,40.8,29.59,SSW,202,1.1,1.1,38,0.00,,FEW035,0.00,VWS V14.01,2013-03-06 20:09:00,
2013-03-06 12:14:00,66.9,39.8,29.59,SSW,202,1.1,1.1,37,0.00,,FEW035,0.00,VWS V14.01,2013-03-06 20:14:00,
2013-03-06 12:19:00,66.9,40.5,29.59,SSW,202,1.1,1.1,38,0.00,,FEW035,0.00,VWS V14.01,2013-03-06 20:19:00,
2013-03-06 12:24:00,67.3,40.8,29.59,SSW,202,1.1,1.1,38,0.00,,FEW035,0.00,VWS V14.01,2013-03-06 20:24:00,
2013-03-06 12:29:00,67.1,40.7,29.59,SSW,202,1.1,1.1,38,0.00,,FEW035,0.00,VWS V14.01,2013-03-06 20:29:00,
2013-03-06 12:34:00,67.5,41.0,29.59,SSW,202,1.1,1.1,38,0.00,,FEW035,0.00,VWS V14.01,2013-03-06 20:34:00,
2013-03-06 12:39:00,67.5,41.0,29.59,SSW,202,1.1,1.1,38,0.00,,FEW035,0.00,VWS V14.01,2013-03-06 20:39:00,
2013-03-06 12:44:00,67.6,40.5,29.59,SSW,202,1.1,1.1,37,0.00,,FEW035,0.00,VWS V14.01,2013-03-06 20:44:00,
2013-03-06 12:49:00,67.6,41.2,29.59,SSW,202,1.1,1.1,38,0.00,,FEW035,0.00,VWS V14.01,2013-03-06 20:49:00,
2013-03-06 12:54:00,67.3,40.1,29.59,SSW,202,1.1,1.1,37,0.00,,FEW035,0.00,VWS V14.01,2013-03-06 20:54:00,
2013-03-06 12:59:00,67.5,40.3,29.59,SSW,202,1.1,1.1,37,0.00,,FEW035,0.00,VWS V14.01,2013-03-06 20:59:00,
2013-03-06 13:04:00,66.6,38.8,29.59,SSW,202,1.1,1.1,36,0.00,,SCT035,0.00,VWS V14.01,2013-03-06 21:04:00,
2013-03-06 13:09:00,67.6,40.5,29.59,SSW,202,1.1,1.1,37,0.00,,SCT035,0.00,VWS V14.01,2013-03-06 21:09:00,
2013-03-06 13:14:00,66.7,39.0,29.56,SSW,202,1.1,1.1,36,0.00,,SCT035,0.00,VWS V14.01,2013-03-06 21:14:00,
2013-03-06 13:19:00,67.1,40.0,29.56,SSW,202,1.1,1.1,37,0.00,,SCT035,0.00,VWS V14.01,2013-03-06 21:19:00,
2013-03-06 13:24:00,67.3,39.4,29.56,SSW,202,1.1,1.1,36,0.00,,SCT035,0.00,VWS V14.01,2013-03-06 21:24:00,
2013-03-06 13:29:00,67.6,40.5,29.56,SSW,202,1.1,1.1,37,0.00,,SCT035,0.00,VWS V14.01,2013-03-06 21:29:00,
2013-03-06 13:34:00,68.0,40.1,29.56,SSW,202,1.1,1.1,36,0.00,,SCT035,0.00,VWS V14.01,2013-03-06 21:34:00,
2013-03-06 13:39:00,68.2,40.9,29.56,SSW,202,1.1,1.1,37,0.00,,SCT035,0.00,VWS V14.01,2013-03-06 21:39:00,
2013-03-06 13:44:00,68.2,40.9,29.56,SSW,202,1.1,1.1,37,0.00,,SCT035,0.00,VWS V14.01,2013-03-06 21:44:00,
2013-03-06 13:49:00,68.5,40.5,29.56,SSW,202,1.1,1.1,36,0.00,,SCT035,0.00,VWS V14.01,2013-03-06 21:49:00,
2013-03-06 13:54:00,68.7,40.0,29.56,SSW,202,1.1,1.1,35,0.00,,SCT035,0.00,VWS V14.01,2013-03-06 21:54:00,
2013-03-06 13:59:00,68.5,40.5,29.59,SSW,202,1.1,1.1,36,0.00,,SCT035,0.00,VWS V14.01,2013-03-06 21:59:00,
2013-03-06 14:04:00,69.6,41.5,29.59,SSW,202,1.1,1.1,36,0.00,,SCT035,0.00,VWS V14.01,2013-03-06 22:04:00,
2013-03-06 14:09:00,69.8,40.9,29.59,SSW,202,1.1,1.1,35,0.00,,SCT035,0.00,VWS V14.01,2013-03-06 22:09:00,
2013-03-06 14:15:00,69.1,40.3,29.56,SSW,202,1.1,1.1,35,0.00,,SCT035,0.00,VWS V14.01,2013-03-06 22:15:00,
2013-03-06 14:20:00,68.2,40.2,29.56,SSW,202,1.1,1.1,36,0.00,,SCT035,0.00,VWS V14.01,2013-03-06 22:20:00,
2013-03-06 14:25:00,67.8,40.6,29.56,SSW,202,1.1,1.1,37,0.00,,SCT035,0.00,VWS V14.01,2013-03-06 22:25:00,
2013-03-06 14:30:00,68.0,40.8,29.56,SSW,202,1.1,1.1,37,0.00,,SCT035,0.00,VWS V14.01,2013-03-06 22:30:00,
2013-03-06 14:35:00,68.2,40.9,29.56,SSW,202,1.1,1.1,37,0.00,,SCT035,0.00,VWS V14.01,2013-03-06 22:35:00,
2013-03-06 14:40:00,67.6,40.5,29.56,SSW,202,1.1,1.1,37,0.00,,SCT035,0.00,VWS V14.01,2013-03-06 22:40:00,
2013-03-06 14:45:00,67.3,40.1,29.56,SSW,202,1.1,1.1,37,0.00,,SCT035,0.00,VWS V14.01,2013-03-06 22:45:00,
2013-03-06 14:50:00,67.3,40.1,29.56,SSW,202,1.1,1.1,37,0.00,,SCT035,0.00,VWS V14.01,2013-03-06 22:50:00,
2013-03-06 14:55:00,68.2,40.9,29.56,SSW,202,1.1,1.1,37,0.00,,SCT035,0.00,VWS V14.01,2013-03-06 22:55:00,
2013-03-06 15:00:00,67.1,40.0,29.56,SSW,202,1.1,1.1,37,0.00,,SCT035,0.00,VWS V14.01,2013-03-06 23:00:00,
2013-03-06 15:05:00,66.4,40.0,29.56,SSW,202,1.1,1.1,38,0.00,,SCT035,0.00,VWS V14.01,2013-03-06 23:05:00,
2013-03-06 15:10:00,66.4,40.0,29.56,SSW,202,1.1,1.1,38,0.00,,SCT035,0.00,VWS V14.01,2013-03-06 23:10:00,
2013-03-06 15:15:00,66.7,41.0,29.56,SSW,202,1.1,1.1,39,0.00,,SCT035,0.00,VWS V14.01,2013-03-06 23:15:00,
2013-03-06 15:20:00,66.7,41.0,29.56,SSW,202,1.1,1.1,39,0.00,,SCT035,0.00,VWS V14.01,2013-03-06 23:20:00,
2013-03-06 15:25:00,66.4,40.7,29.56,SSW,202,1.1,1.1,39,0.00,,SCT035,0.00,VWS V14.01,2013-03-06 23:25:00,
2013-03-06 15:30:00,66.2,41.2,29.53,SSW,202,1.1,1.1,40,0.00,,SCT035,0.00,VWS V14.01,2013-03-06 23:30:00,
2013-03-06 15:35:00,65.7,40.7,29.53,SSW,202,1.1,1.1,40,0.00,,SCT035,0.00,VWS V14.01,2013-03-06 23:35:00,
2013-03-06 15:40:00,65.5,41.2,29.53,SSW,202,1.1,1.1,41,0.00,,SCT035,0.00,VWS V14.01,2013-03-06 23:40:00,
2013-03-06 15:45:00,65.5,40.5,29.53,SSW,202,1.1,1.1,40,0.00,,SCT035,0.00,VWS V14.01,2013-03-06 23:45:00,
2013-03-06 15:50:00,64.9,41.3,29.53,SSW,202,1.1,1.1,42,0.00,,SCT035,0.00,VWS V14.01,2013-03-06 23:50:00,
2013-03-06 15:55:00,65.3,41.6,29.53,SSW,202,1.1,1.1,42,0.00,,SCT035,0.00,VWS V14.01,2013-03-06 23:55:00,
2013-03-06 16:00:00,65.1,41.5,29.53,SSW,202,1.1,1.1,42,0.00,,SCT250,0.00,VWS V14.01,2013-03-07 00:00:00,
2013-03-06 16:05:00,64.6,41.6,29.53,SSW,202,1.1,1.1,43,0.00,,SCT250,0.00,VWS V14.01,2013-03-07 00:05:00,
2013-03-06 16:10:00,64.6,42.2,29.53,SSW,202,1.1,1.1,44,0.00,,SCT250,0.00,VWS V14.01,2013-03-07 00:10:00,
2013-03-06 16:15:00,64.8,42.4,29.53,SSW,202,1.1,1.1,44,0.00,,SCT250,0.00,VWS V14.01,2013-03-07 00:15:00,
2013-03-06 16:20:00,64.4,42.0,29.53,SSW,202,1.1,1.1,44,0.00,,SCT250,0.00,VWS V14.01,2013-03-07 00:20:00,
2013-03-06 16:25:00,65.5,42.4,29.53,SSW,202,1.1,1.1,43,0.00,,SCT250,0.00,VWS V14.01,2013-03-07 00:25:00,
2013-03-06 16:30:00,64.6,41.0,29.53,SSW,202,1.1,1.1,42,0.00,,SCT250,0.00,VWS V14.01,2013-03-07 00:30:00,
2013-03-06 16:35:00,63.0,40.1,29.53,SSW,202,1.1,1.1,43,0.00,,SCT250,0.00,VWS V14.01,2013-03-07 00:35:00,
2013-03-06 16:40:00,61.0,38.9,29.53,SSW,202,1.1,1.1,44,0.00,,SCT250,0.00,VWS V14.01,2013-03-07 00:40:00,
2013-03-06 16:45:00,59.7,38.9,29.53,SSW,202,1.1,1.1,46,0.00,,SCT250,0.00,VWS V14.01,2013-03-07 00:45:00,
2013-03-06 16:50:00,59.4,39.2,29.53,SSW,202,1.1,1.1,47,0.00,,SCT250,0.00,VWS V14.01,2013-03-07 00:50:00,
2013-03-06 16:55:00,59.0,40.4,29.53,SSW,202,1.1,1.1,50,0.00,,SCT250,0.00,VWS V14.01,2013-03-07 00:55:00,
2013-03-06 17:00:00,58.6,40.6,29.50,SSW,202,1.1,1.1,51,0.00,,SCT250,0.00,VWS V14.01,2013-03-07 01:00:00,
2013-03-06 17:06:00,58.1,41.1,29.50,SSW,202,1.1,1.1,53,0.00,,SCT250,0.00,VWS V14.01,2013-03-07 01:06:00,
2013-03-06 17:11:00,57.6,42.0,29.50,SSW,202,1.1,1.1,56,0.00,,SCT250,0.00,VWS V14.01,2013-03-07 01:11:00,
2013-03-06 17:16:00,57.4,41.8,29.50,SSW,202,1.1,1.1,56,0.00,,SCT250,0.00,VWS V14.01,2013-03-07 01:16:00,
2013-03-06 17:21:00,56.8,42.2,29.50,SSW,202,1.1,1.1,58,0.00,,SCT250,0.00,VWS V14.01,2013-03-07 01:21:00,
2013-03-06 17:26:00,56.8,42.2,29.50,SSW,202,1.1,1.1,58,0.00,,SCT250,0.00,VWS V14.01,2013-03-07 01:26:00,
2013-03-06 17:31:00,56.3,42.6,29.53,SSW,202,1.1,1.1,60,0.00,,BKN250,0.00,VWS V14.01,2013-03-07 01:31:00,
2013-03-06 17:36:00,56.1,42.4,29.53,SSW,202,1.1,1.1,60,0.00,,BKN250,0.00,VWS V14.01,2013-03-07 01:36:00,
2013-03-06 17:41:00,55.9,42.3,29.53,SSW,202,1.1,1.1,60,0.00,,BKN250,0.00,VWS V14.01,2013-03-07 01:41:00,
2013-03-06 17:46:00,55.8,42.1,29.53,SSW,202,1.1,1.1,60,0.00,,BKN250,0.00,VWS V14.01,2013-03-07 01:46:00,
2013-03-06 17:51:00,55.6,41.9,29.53,SSW,202,1.1,1.1,60,0.00,,BKN250,0.00,VWS V14.01,2013-03-07 01:51:00,
2013-03-06 17:56:00,55.6,42.4,29.53,SSW,202,1.1,1.1,61,0.00,,BKN250,0.00,VWS V14.01,2013-03-07 01:56:00,
2013-03-06 18:01:00,55.0,42.3,29.53,SSW,202,1.1,1.1,62,0.00,,BKN080,0.00,VWS V14.01,2013-03-07 02:01:00,
2013-03-06 18:06:00,54.7,41.9,29.53,SSW,202,1.1,1.1,62,0.00,,BKN080,0.00,VWS V14.01,2013-03-07 02:06:00,
2013-03-06 18:11:00,54.5,42.2,29.53,SSW,202,1.1,1.1,63,0.00,,BKN080,0.00,VWS V14.01,2013-03-07 02:11:00,
2013-03-06 18:16:00,54.3,42.0,29.53,SSW,202,1.1,1.1,63,0.00,,BKN080,0.00,VWS V14.01,2013-03-07 02:16:00,
2013-03-06 18:21:00,54.1,42.2,29.53,SSW,202,1.1,1.1,64,0.00,,BKN080,0.00,VWS V14.01,2013-03-07 02:21:00,